sensor_id;sensor_type;location;lat;lon;timestamp;P1;durP1;ratioP1;P2;durP2;ratioP2
1479;SDS011;732;51.698;4.886;2023-11-22T00:00:06;53.40;;;23.70;;
1479;SDS011;732;51.698;4.886;2023-11-22T00:02:35;58.20;;;25.47;;
1479;SDS011;732;51.698;4.886;2023-11-22T00:05:05;49.33;;;22.27;;
1479;SDS011;732;51.698;4.886;2023-11-22T00:07:35;57.40;;;24.10;;
1479;SDS011;732;51.698;4.886;2023-11-22T00:10:04;66.87;;;26.80;;
1479;SDS011;732;51.698;4.886;2023-11-22T00:12:36;52.90;;;23.37;;
1479;SDS011;732;51.698;4.886;2023-11-22T00:15:05;48.83;;;22.87;;
1479;SDS011;732;51.698;4.886;2023-11-22T00:17:36;50.10;;;23.10;;
1479;SDS011;732;51.698;4.886;2023-11-22T00:20:06;57.50;;;25.03;;
1479;SDS011;732;51.698;4.886;2023-11-22T00:22:36;56.90;;;25.17;;
1479;SDS011;732;51.698;4.886;2023-11-22T00:25:05;66.23;;;26.97;;
1479;SDS011;732;51.698;4.886;2023-11-22T00:27:40;66.33;;;25.50;;
1479;SDS011;732;51.698;4.886;2023-11-22T00:30:09;66.70;;;26.63;;
1479;SDS011;732;51.698;4.886;2023-11-22T00:32:38;82.53;;;29.50;;
1479;SDS011;732;51.698;4.886;2023-11-22T00:35:07;68.30;;;27.90;;
1479;SDS011;732;51.698;4.886;2023-11-22T00:37:36;74.27;;;27.93;;
1479;SDS011;732;51.698;4.886;2023-11-22T00:40:07;74.67;;;28.10;;
1479;SDS011;732;51.698;4.886;2023-11-22T00:42:38;70.20;;;27.70;;
1479;SDS011;732;51.698;4.886;2023-11-22T00:45:09;66.53;;;28.03;;
1479;SDS011;732;51.698;4.886;2023-11-22T00:47:38;69.77;;;28.80;;
1479;SDS011;732;51.698;4.886;2023-11-22T00:50:07;71.20;;;28.70;;
1479;SDS011;732;51.698;4.886;2023-11-22T00:52:36;79.40;;;29.80;;
1479;SDS011;732;51.698;4.886;2023-11-22T00:55:07;72.37;;;28.80;;
1479;SDS011;732;51.698;4.886;2023-11-22T00:57:36;86.03;;;30.07;;
1479;SDS011;732;51.698;4.886;2023-11-22T01:00:05;78.80;;;30.00;;
1479;SDS011;732;51.698;4.886;2023-11-22T01:02:36;77.53;;;28.87;;
1479;SDS011;732;51.698;4.886;2023-11-22T01:05:05;72.33;;;30.17;;
1479;SDS011;732;51.698;4.886;2023-11-22T01:07:37;75.13;;;29.60;;
1479;SDS011;732;51.698;4.886;2023-11-22T01:10:08;77.50;;;28.70;;
1479;SDS011;732;51.698;4.886;2023-11-22T01:12:38;79.20;;;29.03;;
1479;SDS011;732;51.698;4.886;2023-11-22T01:15:08;85.67;;;30.10;;
1479;SDS011;732;51.698;4.886;2023-11-22T01:17:37;80.70;;;30.93;;
1479;SDS011;732;51.698;4.886;2023-11-22T01:20:07;75.70;;;28.83;;
1479;SDS011;732;51.698;4.886;2023-11-22T01:22:38;75.03;;;30.27;;
1479;SDS011;732;51.698;4.886;2023-11-22T01:25:08;80.80;;;28.70;;
1479;SDS011;732;51.698;4.886;2023-11-22T01:27:36;60.43;;;26.93;;
1479;SDS011;732;51.698;4.886;2023-11-22T01:30:05;79.37;;;31.30;;
1479;SDS011;732;51.698;4.886;2023-11-22T01:32:35;86.97;;;30.90;;
1479;SDS011;732;51.698;4.886;2023-11-22T01:35:03;77.73;;;29.43;;
1479;SDS011;732;51.698;4.886;2023-11-22T01:37:33;87.20;;;30.40;;
1479;SDS011;732;51.698;4.886;2023-11-22T01:40:01;85.00;;;29.57;;
1479;SDS011;732;51.698;4.886;2023-11-22T01:42:31;79.17;;;29.97;;
1479;SDS011;732;51.698;4.886;2023-11-22T01:45:01;77.73;;;29.73;;
1479;SDS011;732;51.698;4.886;2023-11-22T01:47:29;85.30;;;31.37;;
1479;SDS011;732;51.698;4.886;2023-11-22T01:49:58;77.07;;;29.57;;
1479;SDS011;732;51.698;4.886;2023-11-22T01:52:27;83.23;;;28.93;;
1479;SDS011;732;51.698;4.886;2023-11-22T01:54:55;85.97;;;31.97;;
1479;SDS011;732;51.698;4.886;2023-11-22T01:57:24;87.10;;;32.20;;
1479;SDS011;732;51.698;4.886;2023-11-22T01:59:54;92.53;;;31.13;;
1479;SDS011;732;51.698;4.886;2023-11-22T02:02:23;78.83;;;30.10;;
1479;SDS011;732;51.698;4.886;2023-11-22T02:04:52;86.37;;;30.03;;
1479;SDS011;732;51.698;4.886;2023-11-22T02:07:20;86.33;;;31.20;;
1479;SDS011;732;51.698;4.886;2023-11-22T02:09:49;84.87;;;31.47;;
1479;SDS011;732;51.698;4.886;2023-11-22T02:12:20;116.93;;;33.93;;
1479;SDS011;732;51.698;4.886;2023-11-22T02:14:48;114.07;;;34.80;;
1479;SDS011;732;51.698;4.886;2023-11-22T02:17:18;93.00;;;31.03;;
1479;SDS011;732;51.698;4.886;2023-11-22T02:19:49;80.70;;;28.63;;
1479;SDS011;732;51.698;4.886;2023-11-22T02:22:18;97.70;;;34.70;;
1479;SDS011;732;51.698;4.886;2023-11-22T02:24:47;93.20;;;33.40;;
1479;SDS011;732;51.698;4.886;2023-11-22T02:27:16;98.40;;;33.87;;
1479;SDS011;732;51.698;4.886;2023-11-22T02:29:45;96.90;;;31.87;;
1479;SDS011;732;51.698;4.886;2023-11-22T02:32:13;115.10;;;35.07;;
1479;SDS011;732;51.698;4.886;2023-11-22T02:34:42;110.27;;;33.50;;
1479;SDS011;732;51.698;4.886;2023-11-22T02:37:10;95.40;;;31.90;;
1479;SDS011;732;51.698;4.886;2023-11-22T02:39:41;97.70;;;31.87;;
1479;SDS011;732;51.698;4.886;2023-11-22T02:42:22;100.53;;;34.20;;
1479;SDS011;732;51.698;4.886;2023-11-22T02:44:50;93.83;;;31.67;;
1479;SDS011;732;51.698;4.886;2023-11-22T02:47:18;88.23;;;31.93;;
1479;SDS011;732;51.698;4.886;2023-11-22T02:49:47;96.27;;;33.27;;
1479;SDS011;732;51.698;4.886;2023-11-22T02:52:16;93.47;;;30.33;;
1479;SDS011;732;51.698;4.886;2023-11-22T02:54:44;111.00;;;33.23;;
1479;SDS011;732;51.698;4.886;2023-11-22T02:57:15;98.67;;;33.27;;
1479;SDS011;732;51.698;4.886;2023-11-22T02:59:43;100.47;;;33.83;;
1479;SDS011;732;51.698;4.886;2023-11-22T03:02:12;122.80;;;33.00;;
1479;SDS011;732;51.698;4.886;2023-11-22T03:04:44;80.67;;;31.00;;
1479;SDS011;732;51.698;4.886;2023-11-22T03:07:12;84.33;;;30.90;;
1479;SDS011;732;51.698;4.886;2023-11-22T03:09:42;105.10;;;31.13;;
1479;SDS011;732;51.698;4.886;2023-11-22T03:12:12;93.57;;;32.00;;
1479;SDS011;732;51.698;4.886;2023-11-22T03:14:42;79.27;;;29.60;;
1479;SDS011;732;51.698;4.886;2023-11-22T03:17:11;113.63;;;32.63;;
1479;SDS011;732;51.698;4.886;2023-11-22T03:19:40;110.90;;;32.33;;
1479;SDS011;732;51.698;4.886;2023-11-22T03:22:09;85.87;;;28.83;;
1479;SDS011;732;51.698;4.886;2023-11-22T03:24:37;116.80;;;33.30;;
1479;SDS011;732;51.698;4.886;2023-11-22T03:27:06;106.43;;;32.77;;
1479;SDS011;732;51.698;4.886;2023-11-22T03:29:34;80.53;;;29.17;;
1479;SDS011;732;51.698;4.886;2023-11-22T03:32:04;82.43;;;29.07;;
1479;SDS011;732;51.698;4.886;2023-11-22T03:34:34;83.43;;;28.57;;
1479;SDS011;732;51.698;4.886;2023-11-22T03:37:03;75.93;;;28.80;;
1479;SDS011;732;51.698;4.886;2023-11-22T03:39:31;96.80;;;29.90;;
1479;SDS011;732;51.698;4.886;2023-11-22T03:42:00;93.60;;;32.50;;
1479;SDS011;732;51.698;4.886;2023-11-22T03:44:28;77.63;;;28.70;;
1479;SDS011;732;51.698;4.886;2023-11-22T03:46:57;104.57;;;33.77;;
1479;SDS011;732;51.698;4.886;2023-11-22T03:49:27;115.70;;;34.57;;
1479;SDS011;732;51.698;4.886;2023-11-22T03:51:55;127.87;;;35.00;;
1479;SDS011;732;51.698;4.886;2023-11-22T03:54:24;122.70;;;32.70;;
1479;SDS011;732;51.698;4.886;2023-11-22T03:56:52;102.47;;;33.00;;
1479;SDS011;732;51.698;4.886;2023-11-22T03:59:20;137.40;;;33.90;;
1479;SDS011;732;51.698;4.886;2023-11-22T04:01:50;114.20;;;34.50;;
1479;SDS011;732;51.698;4.886;2023-11-22T04:04:18;118.37;;;34.47;;
1479;SDS011;732;51.698;4.886;2023-11-22T04:06:48;107.27;;;33.63;;
1479;SDS011;732;51.698;4.886;2023-11-22T04:09:19;123.80;;;32.80;;
1479;SDS011;732;51.698;4.886;2023-11-22T04:11:47;120.17;;;35.83;;
1479;SDS011;732;51.698;4.886;2023-11-22T04:14:15;104.57;;;34.43;;
1479;SDS011;732;51.698;4.886;2023-11-22T04:16:47;127.00;;;35.50;;
1479;SDS011;732;51.698;4.886;2023-11-22T04:19:16;158.77;;;41.40;;
1479;SDS011;732;51.698;4.886;2023-11-22T04:21:45;108.47;;;34.43;;
1479;SDS011;732;51.698;4.886;2023-11-22T04:24:14;115.63;;;34.30;;
1479;SDS011;732;51.698;4.886;2023-11-22T04:26:44;108.83;;;34.63;;
1479;SDS011;732;51.698;4.886;2023-11-22T04:29:14;133.73;;;37.30;;
1479;SDS011;732;51.698;4.886;2023-11-22T04:31:44;129.47;;;36.47;;
1479;SDS011;732;51.698;4.886;2023-11-22T04:34:12;118.90;;;35.33;;
1479;SDS011;732;51.698;4.886;2023-11-22T04:36:41;108.00;;;34.07;;
1479;SDS011;732;51.698;4.886;2023-11-22T04:39:10;136.50;;;36.33;;
1479;SDS011;732;51.698;4.886;2023-11-22T04:41:40;133.03;;;37.00;;
1479;SDS011;732;51.698;4.886;2023-11-22T04:44:09;111.23;;;34.80;;
1479;SDS011;732;51.698;4.886;2023-11-22T04:46:38;109.57;;;35.30;;
1479;SDS011;732;51.698;4.886;2023-11-22T04:49:06;105.77;;;33.30;;
1479;SDS011;732;51.698;4.886;2023-11-22T04:51:35;114.23;;;34.70;;
1479;SDS011;732;51.698;4.886;2023-11-22T04:54:03;127.20;;;36.40;;
1479;SDS011;732;51.698;4.886;2023-11-22T04:56:32;122.20;;;34.97;;
1479;SDS011;732;51.698;4.886;2023-11-22T04:59:02;106.93;;;36.30;;
1479;SDS011;732;51.698;4.886;2023-11-22T05:01:31;131.20;;;38.60;;
1479;SDS011;732;51.698;4.886;2023-11-22T05:04:00;114.20;;;36.53;;
1479;SDS011;732;51.698;4.886;2023-11-22T05:06:28;101.37;;;34.43;;
1479;SDS011;732;51.698;4.886;2023-11-22T05:08:57;122.60;;;35.43;;
1479;SDS011;732;51.698;4.886;2023-11-22T05:11:25;130.03;;;38.17;;
1479;SDS011;732;51.698;4.886;2023-11-22T05:13:54;133.63;;;38.33;;
1479;SDS011;732;51.698;4.886;2023-11-22T05:16:24;150.47;;;39.10;;
1479;SDS011;732;51.698;4.886;2023-11-22T05:18:52;136.53;;;39.73;;
1479;SDS011;732;51.698;4.886;2023-11-22T05:21:21;129.53;;;39.07;;
1479;SDS011;732;51.698;4.886;2023-11-22T05:23:48;122.00;;;36.10;;
1479;SDS011;732;51.698;4.886;2023-11-22T05:26:18;128.33;;;38.77;;
1479;SDS011;732;51.698;4.886;2023-11-22T05:28:46;130.67;;;36.27;;
1479;SDS011;732;51.698;4.886;2023-11-22T05:31:15;142.80;;;38.50;;
1479;SDS011;732;51.698;4.886;2023-11-22T05:33:45;127.97;;;36.83;;
1479;SDS011;732;51.698;4.886;2023-11-22T05:36:13;128.40;;;39.27;;
1479;SDS011;732;51.698;4.886;2023-11-22T05:38:43;149.33;;;39.90;;
1479;SDS011;732;51.698;4.886;2023-11-22T05:41:12;106.73;;;35.63;;
1479;SDS011;732;51.698;4.886;2023-11-22T05:43:40;130.37;;;36.93;;
1479;SDS011;732;51.698;4.886;2023-11-22T05:46:09;140.53;;;37.10;;
1479;SDS011;732;51.698;4.886;2023-11-22T05:48:39;123.20;;;36.03;;
1479;SDS011;732;51.698;4.886;2023-11-22T05:51:08;126.67;;;37.57;;
1479;SDS011;732;51.698;4.886;2023-11-22T05:53:37;125.87;;;37.87;;
1479;SDS011;732;51.698;4.886;2023-11-22T05:56:07;96.83;;;34.10;;
1479;SDS011;732;51.698;4.886;2023-11-22T05:58:35;134.67;;;36.67;;
1479;SDS011;732;51.698;4.886;2023-11-22T06:01:05;125.63;;;37.40;;
1479;SDS011;732;51.698;4.886;2023-11-22T06:03:35;132.83;;;37.00;;
1479;SDS011;732;51.698;4.886;2023-11-22T06:06:05;134.93;;;37.80;;
1479;SDS011;732;51.698;4.886;2023-11-22T06:08:35;137.20;;;36.70;;
1479;SDS011;732;51.698;4.886;2023-11-22T06:11:04;121.07;;;36.10;;
1479;SDS011;732;51.698;4.886;2023-11-22T06:13:33;119.97;;;35.63;;
1479;SDS011;732;51.698;4.886;2023-11-22T06:16:03;126.20;;;34.73;;
1479;SDS011;732;51.698;4.886;2023-11-22T06:18:32;116.00;;;33.70;;
1479;SDS011;732;51.698;4.886;2023-11-22T06:21:06;124.57;;;36.40;;
1479;SDS011;732;51.698;4.886;2023-11-22T06:23:36;110.70;;;35.07;;
1479;SDS011;732;51.698;4.886;2023-11-22T06:26:05;135.83;;;37.93;;
1479;SDS011;732;51.698;4.886;2023-11-22T06:28:34;115.47;;;36.67;;
1479;SDS011;732;51.698;4.886;2023-11-22T06:31:02;121.87;;;35.83;;
1479;SDS011;732;51.698;4.886;2023-11-22T06:33:31;122.27;;;36.70;;
1479;SDS011;732;51.698;4.886;2023-11-22T06:35:59;100.97;;;33.37;;
1479;SDS011;732;51.698;4.886;2023-11-22T06:38:28;115.93;;;33.60;;
1479;SDS011;732;51.698;4.886;2023-11-22T06:40:58;137.07;;;39.70;;
1479;SDS011;732;51.698;4.886;2023-11-22T06:43:27;124.37;;;35.50;;
1479;SDS011;732;51.698;4.886;2023-11-22T06:45:55;121.17;;;36.27;;
1479;SDS011;732;51.698;4.886;2023-11-22T06:48:24;125.70;;;37.70;;
1479;SDS011;732;51.698;4.886;2023-11-22T06:50:52;159.23;;;41.20;;
1479;SDS011;732;51.698;4.886;2023-11-22T06:53:20;119.33;;;36.77;;
1479;SDS011;732;51.698;4.886;2023-11-22T06:55:49;112.57;;;35.50;;
1479;SDS011;732;51.698;4.886;2023-11-22T06:58:18;129.77;;;38.63;;
1479;SDS011;732;51.698;4.886;2023-11-22T07:00:47;100.40;;;32.97;;
1479;SDS011;732;51.698;4.886;2023-11-22T07:03:15;142.77;;;39.97;;
1479;SDS011;732;51.698;4.886;2023-11-22T07:05:44;119.20;;;37.60;;
1479;SDS011;732;51.698;4.886;2023-11-22T07:08:13;106.83;;;35.17;;
1479;SDS011;732;51.698;4.886;2023-11-22T07:10:43;105.13;;;35.47;;
1479;SDS011;732;51.698;4.886;2023-11-22T07:13:12;123.43;;;37.57;;
1479;SDS011;732;51.698;4.886;2023-11-22T07:15:43;100.27;;;34.97;;
1479;SDS011;732;51.698;4.886;2023-11-22T07:18:11;121.60;;;36.27;;
1479;SDS011;732;51.698;4.886;2023-11-22T07:20:40;119.07;;;37.00;;
1479;SDS011;732;51.698;4.886;2023-11-22T07:23:09;107.33;;;35.40;;
1479;SDS011;732;51.698;4.886;2023-11-22T07:25:40;136.30;;;39.87;;
1479;SDS011;732;51.698;4.886;2023-11-22T07:28:10;119.70;;;37.53;;
1479;SDS011;732;51.698;4.886;2023-11-22T07:30:38;106.77;;;34.03;;
1479;SDS011;732;51.698;4.886;2023-11-22T07:33:09;105.00;;;33.60;;
1479;SDS011;732;51.698;4.886;2023-11-22T07:35:38;105.70;;;33.70;;
1479;SDS011;732;51.698;4.886;2023-11-22T07:38:07;112.80;;;35.40;;
1479;SDS011;732;51.698;4.886;2023-11-22T07:40:37;120.57;;;40.00;;
1479;SDS011;732;51.698;4.886;2023-11-22T07:43:05;109.33;;;36.37;;
1479;SDS011;732;51.698;4.886;2023-11-22T07:45:34;116.43;;;34.87;;
1479;SDS011;732;51.698;4.886;2023-11-22T07:48:03;97.53;;;32.83;;
1479;SDS011;732;51.698;4.886;2023-11-22T07:50:33;96.80;;;34.20;;
1479;SDS011;732;51.698;4.886;2023-11-22T07:53:02;97.57;;;35.40;;
1479;SDS011;732;51.698;4.886;2023-11-22T07:55:31;99.13;;;35.53;;
1479;SDS011;732;51.698;4.886;2023-11-22T07:58:04;102.73;;;36.00;;
1479;SDS011;732;51.698;4.886;2023-11-22T08:00:33;119.87;;;37.50;;
1479;SDS011;732;51.698;4.886;2023-11-22T08:03:03;113.47;;;37.37;;
1479;SDS011;732;51.698;4.886;2023-11-22T08:05:35;90.07;;;31.90;;
1479;SDS011;732;51.698;4.886;2023-11-22T08:08:06;95.73;;;33.30;;
1479;SDS011;732;51.698;4.886;2023-11-22T08:10:35;109.67;;;36.77;;
1479;SDS011;732;51.698;4.886;2023-11-22T08:13:04;112.17;;;38.20;;
1479;SDS011;732;51.698;4.886;2023-11-22T08:15:32;106.37;;;35.47;;
1479;SDS011;732;51.698;4.886;2023-11-22T08:18:01;90.20;;;34.00;;
1479;SDS011;732;51.698;4.886;2023-11-22T08:20:30;88.20;;;33.20;;
1479;SDS011;732;51.698;4.886;2023-11-22T08:23:00;101.30;;;35.87;;
1479;SDS011;732;51.698;4.886;2023-11-22T08:25:29;121.33;;;38.13;;
1479;SDS011;732;51.698;4.886;2023-11-22T08:27:58;105.20;;;35.67;;
1479;SDS011;732;51.698;4.886;2023-11-22T08:30:27;104.53;;;35.00;;
1479;SDS011;732;51.698;4.886;2023-11-22T08:32:59;91.83;;;32.97;;
1479;SDS011;732;51.698;4.886;2023-11-22T08:35:28;98.73;;;36.57;;
1479;SDS011;732;51.698;4.886;2023-11-22T08:37:57;117.23;;;38.00;;
1479;SDS011;732;51.698;4.886;2023-11-22T08:40:28;87.50;;;32.43;;
1479;SDS011;732;51.698;4.886;2023-11-22T08:42:57;107.30;;;36.70;;
1479;SDS011;732;51.698;4.886;2023-11-22T08:45:25;111.40;;;38.13;;
1479;SDS011;732;51.698;4.886;2023-11-22T08:47:55;112.17;;;36.67;;
1479;SDS011;732;51.698;4.886;2023-11-22T08:50:25;92.90;;;34.93;;
1479;SDS011;732;51.698;4.886;2023-11-22T08:52:54;94.57;;;37.03;;
1479;SDS011;732;51.698;4.886;2023-11-22T08:55:24;96.33;;;37.00;;
1479;SDS011;732;51.698;4.886;2023-11-22T08:57:54;103.03;;;36.40;;
1479;SDS011;732;51.698;4.886;2023-11-22T09:00:22;104.10;;;38.60;;
1479;SDS011;732;51.698;4.886;2023-11-22T09:02:54;99.23;;;38.00;;
1479;SDS011;732;51.698;4.886;2023-11-22T09:05:23;100.87;;;39.33;;
1479;SDS011;732;51.698;4.886;2023-11-22T09:07:51;104.77;;;38.60;;
1479;SDS011;732;51.698;4.886;2023-11-22T09:10:22;99.07;;;38.63;;
1479;SDS011;732;51.698;4.886;2023-11-22T09:12:50;94.33;;;37.70;;
1479;SDS011;732;51.698;4.886;2023-11-22T09:15:20;99.83;;;37.73;;
1479;SDS011;732;51.698;4.886;2023-11-22T09:17:53;99.10;;;37.93;;
1479;SDS011;732;51.698;4.886;2023-11-22T09:20:21;88.30;;;35.43;;
1479;SDS011;732;51.698;4.886;2023-11-22T09:22:51;89.83;;;36.87;;
1479;SDS011;732;51.698;4.886;2023-11-22T09:25:21;83.13;;;35.23;;
1479;SDS011;732;51.698;4.886;2023-11-22T09:27:51;92.80;;;37.37;;
1479;SDS011;732;51.698;4.886;2023-11-22T09:30:23;88.63;;;38.63;;
1479;SDS011;732;51.698;4.886;2023-11-22T09:33:01;82.80;;;37.37;;
1479;SDS011;732;51.698;4.886;2023-11-22T09:35:32;80.30;;;37.50;;
1479;SDS011;732;51.698;4.886;2023-11-22T09:38:02;74.43;;;34.20;;
1479;SDS011;732;51.698;4.886;2023-11-22T09:40:33;83.13;;;35.93;;
1479;SDS011;732;51.698;4.886;2023-11-22T09:43:02;83.30;;;37.43;;
1479;SDS011;732;51.698;4.886;2023-11-22T09:45:33;73.67;;;34.20;;
1479;SDS011;732;51.698;4.886;2023-11-22T09:48:02;89.03;;;38.10;;
1479;SDS011;732;51.698;4.886;2023-11-22T09:50:38;85.60;;;36.53;;
1479;SDS011;732;51.698;4.886;2023-11-22T09:53:19;80.63;;;36.90;;
1479;SDS011;732;51.698;4.886;2023-11-22T09:55:53;77.97;;;37.30;;
1479;SDS011;732;51.698;4.886;2023-11-22T09:58:22;77.10;;;35.90;;
1479;SDS011;732;51.698;4.886;2023-11-22T10:00:52;82.17;;;36.83;;
1479;SDS011;732;51.698;4.886;2023-11-22T10:03:21;81.20;;;36.27;;
1479;SDS011;732;51.698;4.886;2023-11-22T10:05:51;84.03;;;36.77;;
1479;SDS011;732;51.698;4.886;2023-11-22T10:08:20;79.50;;;36.87;;
1479;SDS011;732;51.698;4.886;2023-11-22T10:10:49;88.70;;;37.23;;
1479;SDS011;732;51.698;4.886;2023-11-22T10:13:20;79.97;;;38.30;;
1479;SDS011;732;51.698;4.886;2023-11-22T10:15:49;80.23;;;38.73;;
1479;SDS011;732;51.698;4.886;2023-11-22T10:18:20;85.13;;;37.93;;
1479;SDS011;732;51.698;4.886;2023-11-22T10:20:51;76.27;;;37.10;;
1479;SDS011;732;51.698;4.886;2023-11-22T10:23:19;75.73;;;35.20;;
1479;SDS011;732;51.698;4.886;2023-11-22T10:25:52;70.10;;;35.40;;
1479;SDS011;732;51.698;4.886;2023-11-22T10:28:22;75.10;;;36.63;;
1479;SDS011;732;51.698;4.886;2023-11-22T10:30:56;82.97;;;34.83;;
1479;SDS011;732;51.698;4.886;2023-11-22T10:33:24;68.70;;;32.00;;
1479;SDS011;732;51.698;4.886;2023-11-22T10:35:56;67.90;;;31.63;;
1479;SDS011;732;51.698;4.886;2023-11-22T10:38:24;64.87;;;31.60;;
1479;SDS011;732;51.698;4.886;2023-11-22T10:40:54;71.97;;;34.20;;
1479;SDS011;732;51.698;4.886;2023-11-22T10:43:24;71.93;;;31.97;;
1479;SDS011;732;51.698;4.886;2023-11-22T10:46:00;65.13;;;31.53;;
1479;SDS011;732;51.698;4.886;2023-11-22T10:48:31;60.80;;;29.30;;
1479;SDS011;732;51.698;4.886;2023-11-22T10:51:00;63.67;;;30.60;;
1479;SDS011;732;51.698;4.886;2023-11-22T10:53:33;59.03;;;29.80;;
1479;SDS011;732;51.698;4.886;2023-11-22T10:56:05;57.70;;;28.17;;
1479;SDS011;732;51.698;4.886;2023-11-22T10:58:44;52.53;;;27.93;;
1479;SDS011;732;51.698;4.886;2023-11-22T11:01:17;47.53;;;25.60;;
1479;SDS011;732;51.698;4.886;2023-11-22T11:03:51;54.93;;;27.20;;
1479;SDS011;732;51.698;4.886;2023-11-22T11:06:31;47.60;;;24.53;;
1479;SDS011;732;51.698;4.886;2023-11-22T11:09:03;44.00;;;24.53;;
1479;SDS011;732;51.698;4.886;2023-11-22T11:11:34;44.30;;;23.60;;
1479;SDS011;732;51.698;4.886;2023-11-22T11:14:04;46.17;;;24.10;;
1479;SDS011;732;51.698;4.886;2023-11-22T11:16:38;45.30;;;25.93;;
1479;SDS011;732;51.698;4.886;2023-11-22T11:19:13;45.50;;;24.90;;
1479;SDS011;732;51.698;4.886;2023-11-22T11:21:45;40.63;;;23.87;;
1479;SDS011;732;51.698;4.886;2023-11-22T11:24:16;46.23;;;25.27;;
1479;SDS011;732;51.698;4.886;2023-11-22T11:26:47;44.77;;;23.93;;
1479;SDS011;732;51.698;4.886;2023-11-22T11:29:32;37.77;;;21.30;;
1479;SDS011;732;51.698;4.886;2023-11-22T11:32:04;43.20;;;23.97;;
1479;SDS011;732;51.698;4.886;2023-11-22T11:34:45;39.80;;;21.90;;
1479;SDS011;732;51.698;4.886;2023-11-22T11:37:17;37.70;;;21.53;;
1479;SDS011;732;51.698;4.886;2023-11-22T11:39:46;35.93;;;21.53;;
1479;SDS011;732;51.698;4.886;2023-11-22T11:42:15;37.07;;;22.80;;
1479;SDS011;732;51.698;4.886;2023-11-22T11:44:50;38.30;;;22.63;;
1479;SDS011;732;51.698;4.886;2023-11-22T11:47:33;34.10;;;21.10;;
1479;SDS011;732;51.698;4.886;2023-11-22T11:50:02;34.63;;;21.03;;
1479;SDS011;732;51.698;4.886;2023-11-22T11:52:33;31.40;;;19.70;;
1479;SDS011;732;51.698;4.886;2023-11-22T11:55:02;38.50;;;22.47;;
1479;SDS011;732;51.698;4.886;2023-11-22T11:57:32;35.87;;;21.00;;
1479;SDS011;732;51.698;4.886;2023-11-22T12:00:03;32.73;;;19.93;;
1479;SDS011;732;51.698;4.886;2023-11-22T12:02:43;34.80;;;21.20;;
1479;SDS011;732;51.698;4.886;2023-11-22T12:05:12;33.80;;;19.20;;
1479;SDS011;732;51.698;4.886;2023-11-22T12:07:41;33.47;;;21.00;;
1479;SDS011;732;51.698;4.886;2023-11-22T12:10:09;35.87;;;21.03;;
1479;SDS011;732;51.698;4.886;2023-11-22T12:12:42;33.93;;;20.20;;
1479;SDS011;732;51.698;4.886;2023-11-22T12:15:12;32.77;;;20.17;;
1479;SDS011;732;51.698;4.886;2023-11-22T12:17:41;35.43;;;20.70;;
1479;SDS011;732;51.698;4.886;2023-11-22T12:20:13;32.67;;;20.30;;
1479;SDS011;732;51.698;4.886;2023-11-22T12:22:45;37.80;;;21.17;;
1479;SDS011;732;51.698;4.886;2023-11-22T12:25:14;36.73;;;19.67;;
1479;SDS011;732;51.698;4.886;2023-11-22T12:27:43;37.70;;;20.80;;
1479;SDS011;732;51.698;4.886;2023-11-22T12:30:27;34.63;;;20.90;;
1479;SDS011;732;51.698;4.886;2023-11-22T12:33:04;30.93;;;18.63;;
1479;SDS011;732;51.698;4.886;2023-11-22T12:35:34;30.83;;;19.40;;
1479;SDS011;732;51.698;4.886;2023-11-22T12:38:04;29.77;;;18.33;;
1479;SDS011;732;51.698;4.886;2023-11-22T12:40:33;32.70;;;19.70;;
1479;SDS011;732;51.698;4.886;2023-11-22T12:43:02;33.20;;;20.33;;
1479;SDS011;732;51.698;4.886;2023-11-22T12:45:32;31.70;;;19.73;;
1479;SDS011;732;51.698;4.886;2023-11-22T12:48:20;31.47;;;20.27;;
1479;SDS011;732;51.698;4.886;2023-11-22T12:50:56;30.97;;;19.63;;
1479;SDS011;732;51.698;4.886;2023-11-22T12:53:25;30.23;;;20.40;;
1479;SDS011;732;51.698;4.886;2023-11-22T12:55:55;37.13;;;21.67;;
1479;SDS011;732;51.698;4.886;2023-11-22T12:58:25;39.80;;;22.60;;
1479;SDS011;732;51.698;4.886;2023-11-22T13:00:54;40.07;;;21.60;;
1479;SDS011;732;51.698;4.886;2023-11-22T13:03:28;35.93;;;22.00;;
1479;SDS011;732;51.698;4.886;2023-11-22T13:05:58;40.60;;;23.30;;
1479;SDS011;732;51.698;4.886;2023-11-22T13:08:27;47.27;;;24.07;;
1479;SDS011;732;51.698;4.886;2023-11-22T13:10:56;46.90;;;22.87;;
1479;SDS011;732;51.698;4.886;2023-11-22T13:13:26;38.80;;;22.60;;
1479;SDS011;732;51.698;4.886;2023-11-22T13:15:57;50.17;;;24.70;;
1479;SDS011;732;51.698;4.886;2023-11-22T13:18:26;52.60;;;26.60;;
1479;SDS011;732;51.698;4.886;2023-11-22T13:20:56;49.67;;;25.67;;
1479;SDS011;732;51.698;4.886;2023-11-22T13:23:25;52.43;;;25.33;;
1479;SDS011;732;51.698;4.886;2023-11-22T13:25:53;53.70;;;27.33;;
1479;SDS011;732;51.698;4.886;2023-11-22T13:28:22;49.97;;;25.00;;
1479;SDS011;732;51.698;4.886;2023-11-22T13:30:51;44.00;;;24.53;;
1479;SDS011;732;51.698;4.886;2023-11-22T13:33:20;38.00;;;23.73;;
1479;SDS011;732;51.698;4.886;2023-11-22T13:35:50;40.27;;;21.30;;
1479;SDS011;732;51.698;4.886;2023-11-22T13:38:19;35.93;;;21.50;;
1479;SDS011;732;51.698;4.886;2023-11-22T13:40:47;33.93;;;20.70;;
1479;SDS011;732;51.698;4.886;2023-11-22T13:43:16;36.00;;;21.40;;
1479;SDS011;732;51.698;4.886;2023-11-22T13:45:46;37.00;;;22.23;;
1479;SDS011;732;51.698;4.886;2023-11-22T13:48:16;42.63;;;22.63;;
1479;SDS011;732;51.698;4.886;2023-11-22T13:50:45;36.33;;;21.30;;
1479;SDS011;732;51.698;4.886;2023-11-22T13:53:15;36.60;;;22.13;;
1479;SDS011;732;51.698;4.886;2023-11-22T13:55:47;36.33;;;22.40;;
1479;SDS011;732;51.698;4.886;2023-11-22T13:58:16;34.60;;;21.63;;
1479;SDS011;732;51.698;4.886;2023-11-22T14:00:45;39.07;;;21.20;;
1479;SDS011;732;51.698;4.886;2023-11-22T14:03:14;40.20;;;22.90;;
1479;SDS011;732;51.698;4.886;2023-11-22T14:05:43;37.33;;;21.97;;
1479;SDS011;732;51.698;4.886;2023-11-22T14:08:12;37.00;;;21.60;;
1479;SDS011;732;51.698;4.886;2023-11-22T14:10:43;41.30;;;22.90;;
1479;SDS011;732;51.698;4.886;2023-11-22T14:13:12;41.30;;;23.40;;
1479;SDS011;732;51.698;4.886;2023-11-22T14:15:40;42.40;;;23.30;;
1479;SDS011;732;51.698;4.886;2023-11-22T14:18:09;41.57;;;24.50;;
1479;SDS011;732;51.698;4.886;2023-11-22T14:20:37;47.67;;;25.30;;
1479;SDS011;732;51.698;4.886;2023-11-22T14:23:05;49.67;;;26.83;;
1479;SDS011;732;51.698;4.886;2023-11-22T14:25:35;46.03;;;26.90;;
1479;SDS011;732;51.698;4.886;2023-11-22T14:28:07;62.90;;;29.80;;
1479;SDS011;732;51.698;4.886;2023-11-22T14:30:36;58.33;;;30.00;;
1479;SDS011;732;51.698;4.886;2023-11-22T14:33:05;53.23;;;27.60;;
1479;SDS011;732;51.698;4.886;2023-11-22T14:35:34;55.10;;;29.10;;
1479;SDS011;732;51.698;4.886;2023-11-22T14:38:03;62.17;;;30.40;;
1479;SDS011;732;51.698;4.886;2023-11-22T14:40:33;56.03;;;27.97;;
1479;SDS011;732;51.698;4.886;2023-11-22T14:43:05;53.30;;;28.77;;
1479;SDS011;732;51.698;4.886;2023-11-22T14:45:34;56.33;;;28.40;;
1479;SDS011;732;51.698;4.886;2023-11-22T14:48:04;58.60;;;28.73;;
1479;SDS011;732;51.698;4.886;2023-11-22T14:50:34;62.00;;;30.90;;
1479;SDS011;732;51.698;4.886;2023-11-22T14:53:02;59.40;;;31.13;;
1479;SDS011;732;51.698;4.886;2023-11-22T14:55:32;58.63;;;30.83;;
1479;SDS011;732;51.698;4.886;2023-11-22T14:58:06;61.87;;;30.93;;
1479;SDS011;732;51.698;4.886;2023-11-22T15:00:34;64.43;;;31.80;;
1479;SDS011;732;51.698;4.886;2023-11-22T15:03:03;61.67;;;29.73;;
1479;SDS011;732;51.698;4.886;2023-11-22T15:05:32;58.20;;;30.00;;
1479;SDS011;732;51.698;4.886;2023-11-22T15:08:00;61.77;;;31.13;;
1479;SDS011;732;51.698;4.886;2023-11-22T15:10:29;66.20;;;30.63;;
1479;SDS011;732;51.698;4.886;2023-11-22T15:12:57;67.10;;;30.70;;